createdAt,value
2022-10-20T00:00:11.222Z,1018.11
2022-10-20T00:05:10.763Z,1018.15
2022-10-20T00:10:11.488Z,1018.14
2022-10-20T00:15:11.248Z,1018.05
2022-10-20T00:20:11.034Z,1017.94
2022-10-20T00:25:10.831Z,1017.9
2022-10-20T00:30:11.544Z,1017.69
2022-10-20T00:35:11.251Z,1017.75
2022-10-20T00:40:10.957Z,1017.54
2022-10-20T00:45:10.679Z,1017.47
2022-10-20T00:50:11.386Z,1017.39
2022-10-20T00:55:11.116Z,1017.33
2022-10-20T01:00:10.837Z,1017.3
2022-10-20T01:05:11.624Z,1017.13
2022-10-20T01:10:11.348Z,1017.0
2022-10-20T01:15:11.133Z,1017.1
2022-10-20T01:20:10.912Z,1017.12
2022-10-20T01:25:11.628Z,1017.02
2022-10-20T01:30:11.333Z,1016.87
2022-10-20T01:35:11.057Z,1016.79
2022-10-20T01:40:10.786Z,1016.72
2022-10-20T01:45:11.522Z,1016.56
2022-10-20T01:50:11.276Z,1016.54
2022-10-20T01:55:10.993Z,1016.53
2022-10-20T02:00:10.710Z,1016.53
2022-10-20T02:05:11.454Z,1016.35
2022-10-20T02:10:11.190Z,1016.26
2022-10-20T02:15:10.926Z,1016.17
2022-10-20T02:20:11.665Z,1016.07
2022-10-20T02:25:11.348Z,1016.0
2022-10-20T02:30:11.047Z,1015.95
2022-10-20T02:35:10.762Z,1015.76
2022-10-20T02:40:11.473Z,1015.73
2022-10-20T02:45:11.173Z,1015.64
2022-10-20T02:50:10.902Z,1015.65
2022-10-20T02:55:11.665Z,1015.6
2022-10-20T03:00:11.487Z,1015.67
2022-10-20T03:05:11.214Z,1015.47
2022-10-20T03:10:10.926Z,1015.55
2022-10-20T03:15:11.679Z,1015.58
2022-10-20T03:20:11.457Z,1015.54
2022-10-20T03:25:11.203Z,1015.41
2022-10-20T03:30:10.893Z,1015.3
2022-10-20T03:35:11.591Z,1015.33
2022-10-20T03:40:11.311Z,1015.38
2022-10-20T03:45:13.750Z,1015.28
2022-10-20T03:50:11.044Z,1015.16
2022-10-20T03:55:10.753Z,1015.15
2022-10-20T04:00:11.466Z,1015.07
2022-10-20T04:05:05.869Z,1014.91
2022-10-20T04:10:06.032Z,1014.98
2022-10-20T04:15:04.970Z,1014.81
2022-10-20T04:20:04.850Z,1014.79
2022-10-20T04:25:05.813Z,1014.69
2022-10-20T04:30:05.789Z,1014.7
2022-10-20T04:35:07.339Z,1014.65
2022-10-20T04:40:07.088Z,1014.57
2022-10-20T04:45:05.145Z,1014.47
2022-10-20T04:50:05.152Z,1014.41
2022-10-20T04:55:05.470Z,1014.41
2022-10-20T05:00:05.721Z,1014.34
2022-10-20T05:05:06.359Z,1014.18
2022-10-20T05:10:06.610Z,1014.14
2022-10-20T05:15:06.167Z,1013.89
2022-10-20T05:20:05.472Z,1013.71
2022-10-20T05:25:35.523Z,1013.65
2022-10-20T05:30:06.160Z,1013.49
2022-10-20T05:35:05.231Z,1013.4
2022-10-20T05:40:05.468Z,1013.48
2022-10-20T05:45:05.829Z,1013.35
2022-10-20T05:50:06.640Z,1013.24
2022-10-20T05:55:05.695Z,1013.19
2022-10-20T06:00:05.755Z,1013.13
2022-10-20T06:05:05.751Z,1013.22
2022-10-20T06:10:05.579Z,1013.23
2022-10-20T06:15:05.845Z,1013.14
2022-10-20T06:20:06.504Z,1013.11
2022-10-20T06:25:06.097Z,1013.18
2022-10-20T06:30:05.092Z,1013.24
2022-10-20T06:35:05.706Z,1013.31
2022-10-20T06:40:05.549Z,1013.23
2022-10-20T06:45:07.463Z,1013.39
2022-10-20T06:50:05.791Z,1013.25
2022-10-20T06:55:07.762Z,1013.27
2022-10-20T07:00:06.311Z,1013.46
2022-10-20T07:05:06.976Z,1013.58
2022-10-20T07:10:05.148Z,1013.54
2022-10-20T07:15:05.425Z,1013.54
2022-10-20T07:20:05.744Z,1013.53
2022-10-20T07:25:05.753Z,1013.31
2022-10-20T07:30:05.084Z,1013.21
2022-10-20T07:35:05.133Z,1013.3
2022-10-20T07:40:05.211Z,1013.38
2022-10-20T07:45:05.303Z,1013.35
2022-10-20T07:50:05.566Z,1013.35
2022-10-20T07:55:17.703Z,1013.32
2022-10-20T08:00:05.126Z,1013.27
2022-10-20T08:05:05.126Z,1013.15
2022-10-20T08:10:06.146Z,1013.15
2022-10-20T08:15:05.494Z,1013.2
2022-10-20T08:20:24.903Z,1012.92
2022-10-20T08:25:05.137Z,1012.91
2022-10-20T08:30:22.967Z,1012.91
2022-10-20T08:35:05.587Z,1012.97
2022-10-20T08:40:05.645Z,1012.66
2022-10-20T08:45:06.977Z,1012.72
2022-10-20T08:50:05.234Z,1012.71
2022-10-20T08:55:05.450Z,1012.56
2022-10-20T09:00:08.874Z,1012.5
2022-10-20T09:05:05.719Z,1012.4
2022-10-20T09:10:06.206Z,1012.37
2022-10-20T09:15:05.806Z,1012.27
2022-10-20T09:20:06.172Z,1012.41
2022-10-20T09:25:05.125Z,1012.36
2022-10-20T09:30:05.452Z,1012.33
2022-10-20T09:35:05.644Z,1012.35
2022-10-20T09:40:05.715Z,1012.32
2022-10-20T09:45:06.166Z,1012.42
2022-10-20T09:50:05.776Z,1012.24
2022-10-20T09:55:05.860Z,1012.17
2022-10-20T10:00:19.156Z,1012.12
2022-10-20T10:05:05.409Z,1012.25
2022-10-20T10:10:08.266Z,1012.16
2022-10-20T10:15:06.122Z,1012.08
2022-10-20T10:20:05.010Z,1011.98
2022-10-20T10:25:05.301Z,1011.87
2022-10-20T10:30:05.174Z,1011.92
2022-10-20T10:35:05.721Z,1012.19
2022-10-20T10:40:05.965Z,1012.37
2022-10-20T10:45:05.432Z,1012.19
2022-10-20T10:50:05.732Z,1012.21
2022-10-20T10:55:05.657Z,1011.98
2022-10-20T11:00:05.753Z,1011.99
2022-10-20T11:05:05.863Z,1012.04
2022-10-20T11:10:06.303Z,1012.14
2022-10-20T11:15:05.404Z,1012.1
2022-10-20T11:20:05.532Z,1012.03
2022-10-20T11:25:05.527Z,1012.0
2022-10-20T11:30:06.130Z,1011.92
2022-10-20T11:35:05.109Z,1011.69
2022-10-20T11:40:08.471Z,1011.49
2022-10-20T11:45:06.802Z,1011.46
2022-10-20T11:50:05.941Z,1011.47
2022-10-20T11:55:06.315Z,1011.47
2022-10-20T12:00:05.511Z,1011.55
2022-10-20T12:05:06.216Z,1011.55
2022-10-20T12:10:05.721Z,1011.58
2022-10-20T12:15:06.895Z,1011.51
2022-10-20T12:20:06.153Z,1011.59
2022-10-20T12:25:05.459Z,1011.7
2022-10-20T12:30:05.598Z,1011.66
2022-10-20T12:35:06.298Z,1011.69
2022-10-20T12:40:05.241Z,1011.44
2022-10-20T12:45:05.357Z,1011.36
2022-10-20T12:50:05.664Z,1011.42
2022-10-20T12:55:06.021Z,1011.42
2022-10-20T13:00:05.119Z,1010.84
2022-10-20T13:05:05.293Z,1010.88
2022-10-20T13:10:05.394Z,1010.74
2022-10-20T13:15:05.784Z,1010.66
2022-10-20T13:20:05.895Z,1011.0
2022-10-20T13:25:06.086Z,1010.86
2022-10-20T13:30:05.422Z,1010.76
2022-10-20T13:35:05.367Z,1010.79
2022-10-20T13:40:05.430Z,1010.83
2022-10-20T13:45:05.427Z,1010.76
2022-10-20T13:50:05.741Z,1010.82
2022-10-20T13:55:05.105Z,1010.7
2022-10-20T14:00:05.234Z,1010.74
2022-10-20T14:05:05.699Z,1010.5
2022-10-20T14:10:05.847Z,1010.58
2022-10-20T14:15:05.828Z,1010.37
2022-10-20T14:20:07.354Z,1010.43
2022-10-20T14:25:05.388Z,1010.35
2022-10-20T14:30:05.604Z,1010.28
2022-10-20T14:35:05.695Z,1010.28
2022-10-20T14:40:05.638Z,1010.21
2022-10-20T14:45:06.440Z,1010.12
2022-10-20T14:50:05.416Z,1010.12
2022-10-20T14:55:06.023Z,1010.21
2022-10-20T15:00:06.427Z,1010.23
2022-10-20T15:05:05.511Z,1010.23
2022-10-20T15:10:06.105Z,1010.2
2022-10-20T15:15:05.334Z,1010.19
2022-10-20T15:20:05.649Z,1010.07
2022-10-20T15:25:06.897Z,1010.1
2022-10-20T15:30:05.802Z,1010.1
2022-10-20T15:35:06.224Z,1010.07
2022-10-20T15:40:06.013Z,1010.03
2022-10-20T15:45:05.186Z,1010.1
2022-10-20T15:50:05.248Z,1010.1
2022-10-20T15:55:05.280Z,1009.97
2022-10-20T16:00:05.882Z,1009.89
2022-10-20T16:05:05.847Z,1009.83
2022-10-20T16:10:05.689Z,1009.82
2022-10-20T16:15:05.498Z,1009.95
2022-10-20T16:20:05.369Z,1009.87
2022-10-20T16:25:05.149Z,1009.77
2022-10-20T16:30:04.969Z,1009.79
2022-10-20T16:35:04.844Z,1009.86
2022-10-20T16:40:05.757Z,1009.76
2022-10-20T16:45:05.591Z,1009.7
2022-10-20T16:50:05.440Z,1009.74
2022-10-20T16:55:05.268Z,1009.61
2022-10-20T17:00:05.138Z,1009.59
2022-10-20T17:05:08.234Z,1009.59
2022-10-20T17:10:05.470Z,1009.56
2022-10-20T17:15:05.360Z,1009.51
2022-10-20T17:20:05.372Z,1009.58
2022-10-20T17:25:05.324Z,1009.61
2022-10-20T17:30:05.183Z,1009.68
2022-10-20T17:35:05.075Z,1009.63
2022-10-20T17:40:05.133Z,1009.68
2022-10-20T17:45:05.113Z,1009.56
2022-10-20T17:50:04.950Z,1009.56
2022-10-20T17:55:04.830Z,1009.65
2022-10-20T18:00:09.734Z,1009.65
2022-10-20T18:05:04.876Z,1009.65
2022-10-20T18:10:05.671Z,1009.58
2022-10-20T18:15:05.457Z,1009.51
2022-10-20T18:20:05.303Z,1009.54
2022-10-20T18:25:05.152Z,1009.45
2022-10-20T18:30:04.957Z,1009.52
2022-10-20T18:35:04.801Z,1009.45
2022-10-20T18:40:05.661Z,1009.39
2022-10-20T18:45:05.472Z,1009.38
2022-10-20T18:50:05.433Z,1009.33
2022-10-20T18:55:05.294Z,1009.29
2022-10-20T19:00:05.053Z,1009.29
2022-10-20T19:05:04.922Z,1009.29
2022-10-20T19:10:05.759Z,1009.29
2022-10-20T19:15:05.751Z,1009.25
2022-10-20T19:20:05.594Z,1009.17
2022-10-20T19:25:05.325Z,1009.17
2022-10-20T19:30:05.182Z,1009.1
2022-10-20T19:35:05.071Z,1009.14
2022-10-20T19:40:05.082Z,1009.07
2022-10-20T19:45:05.044Z,1008.82
2022-10-20T19:50:05.071Z,1008.86
2022-10-20T19:55:05.014Z,1008.88
2022-10-20T20:00:05.043Z,1008.79
2022-10-20T20:05:05.000Z,1008.66
2022-10-20T20:10:04.915Z,1008.56
2022-10-20T20:15:05.771Z,1008.63
2022-10-20T20:20:05.700Z,1008.49
2022-10-20T20:25:05.560Z,1008.42
2022-10-20T20:30:05.377Z,1008.4
2022-10-20T20:35:24.984Z,1008.49
2022-10-20T20:40:10.700Z,1008.47
2022-10-20T20:45:11.416Z,1008.44
2022-10-20T20:50:11.129Z,1008.56
2022-10-20T20:55:10.873Z,1008.49
2022-10-20T21:00:11.601Z,1008.48
2022-10-20T21:05:11.331Z,1008.49
2022-10-20T21:10:11.059Z,1008.49
2022-10-20T21:15:10.809Z,1008.41
2022-10-20T21:20:11.558Z,1008.39
2022-10-20T21:25:11.287Z,1008.38
2022-10-20T21:30:10.984Z,1008.37
2022-10-20T21:35:10.718Z,1008.3
2022-10-20T21:40:11.445Z,1008.38
2022-10-20T21:45:14.297Z,1008.4
2022-10-20T21:50:11.572Z,1008.42
2022-10-20T21:55:11.287Z,1008.44
2022-10-20T22:00:11.045Z,1008.42
2022-10-20T22:05:10.783Z,1008.53
2022-10-20T22:10:11.506Z,1008.76
2022-10-20T22:15:11.201Z,1008.62
2022-10-20T22:20:10.917Z,1008.55
2022-10-20T22:25:11.638Z,1008.44
2022-10-20T22:30:11.330Z,1008.38
2022-10-20T22:35:11.058Z,1008.29
2022-10-20T22:40:10.773Z,1008.27
2022-10-20T22:45:11.479Z,1008.38
2022-10-20T22:50:11.226Z,1008.37
2022-10-20T22:55:10.926Z,1008.35
2022-10-20T23:01:02.757Z,1008.38
2022-10-20T23:05:11.562Z,1008.46
2022-10-20T23:10:10.976Z,1008.45
2022-10-20T23:15:10.680Z,1008.56
2022-10-20T23:20:11.476Z,1008.49
2022-10-20T23:25:11.265Z,1008.28
2022-10-20T23:30:10.997Z,1008.21
2022-10-20T23:35:10.736Z,1008.1
2022-10-20T23:40:11.504Z,1008.1
2022-10-20T23:45:11.225Z,1008.01
2022-10-20T23:50:10.970Z,1007.95
2022-10-20T23:55:13.227Z,1007.89
